Time;durP1;ratioP1;P1;durP2;ratioP2;P2;SDS_P1;SDS_P2;PMS_P1;PMS_P2;Temp;Humidity;BMP_temperature;BMP_pressure;BME280_temperature;BME280_humidity;BME280_pressure;Samples;Min_cycle;Max_cycle;Signal;HPM_P1;HPM_P2
2021/01/18 00:00:25;;;;;;;17.80;7.78;;;;;;;-6.01;62.79;93896.97;5115526;27;20016;-76
2021/01/18 00:02:51;;;;;;;15.50;7.72;;;;;;;-6.04;62.56;93893.00;5095188;28;20076;-76
2021/01/18 00:05:17;;;;;;;13.80;7.03;;;;;;;-6.09;62.96;93890.22;5113269;28;20036;-76
2021/01/18 00:07:52;;;;;;;16.70;7.00;;;;;;;-6.12;63.08;93894.03;5113253;28;20521;-76
2021/01/18 00:10:20;;;;;;;18.33;7.72;;;;;;;-6.15;62.98;93896.25;5094881;28;20425;-76
2021/01/18 00:12:51;;;;;;;15.93;7.00;;;;;;;-6.20;63.43;93899.47;5113022;28;20031;-76
2021/01/18 00:15:18;;;;;;;13.10;7.32;;;;;;;-6.28;63.74;93900.50;5113166;28;20102;-76
2021/01/18 00:17:44;;;;;;;14.07;6.82;;;;;;;-6.29;63.82;93896.34;5094843;28;20038;-76
2021/01/18 00:20:12;;;;;;;15.73;7.70;;;;;;;-6.33;63.73;93908.13;5113208;28;20047;-76
2021/01/18 00:22:41;;;;;;;16.38;7.75;;;;;;;-6.36;63.91;93905.94;5094678;28;20031;-77
2021/01/18 00:25:18;;;;;;;15.00;6.32;;;;;;;-6.52;64.59;93911.59;5120375;27;20092;-76
2021/01/18 00:27:44;;;;;;;15.15;6.28;;;;;;;-6.54;65.27;93909.22;5133801;27;20053;-77
2021/01/18 00:30:18;;;;;;;12.27;6.10;;;;;;;-6.53;65.27;93912.63;5133648;27;20046;-77
2021/01/18 00:32:44;;;;;;;13.18;6.78;;;;;;;-6.50;65.39;93910.38;5114998;27;20084;-77
2021/01/18 00:35:13;;;;;;;20.35;7.07;;;;;;;-6.50;65.18;93914.78;5133524;27;20030;-77
2021/01/18 00:37:49;;;;;;;14.57;7.22;;;;;;;-6.40;65.33;93919.53;5124852;27;20444;-77
2021/01/18 00:40:17;;;;;;;17.25;7.78;;;;;;;-6.42;65.09;93927.50;5112930;28;20097;-76
2021/01/18 00:42:44;;;;;;;17.20;6.93;;;;;;;-6.36;65.37;93926.69;5112794;28;20020;-76
2021/01/18 00:45:11;;;;;;;15.82;7.07;;;;;;;-6.28;65.07;93926.44;5094289;28;20110;-76
2021/01/18 00:47:48;;;;;;;15.73;7.22;;;;;;;-6.18;64.20;93938.19;5094119;28;20020;-76
2021/01/18 00:50:15;;;;;;;15.70;7.22;;;;;;;-6.18;63.69;93920.81;5112650;28;20034;-76
2021/01/18 00:52:42;;;;;;;16.38;7.63;;;;;;;-6.19;63.99;93931.41;5112806;28;20098;-76
2021/01/18 00:55:12;;;;;;;17.75;7.50;;;;;;;-6.20;63.71;93928.00;5094258;28;20031;-76
2021/01/18 00:57:38;;;;;;;13.45;6.70;;;;;;;-6.15;63.73;93938.56;5099941;27;20026;-76
2021/01/18 01:00:08;;;;;;;15.85;7.20;;;;;;;-6.20;64.00;93935.00;5114864;27;20035;-76
2021/01/18 01:02:36;;;;;;;15.00;6.85;;;;;;;-6.28;64.11;93939.41;5094051;28;20031;-76
2021/01/18 01:05:03;;;;;;;19.02;8.65;;;;;;;-6.19;64.04;93936.59;5111833;27;20092;-76
2021/01/18 01:07:28;;;;;;;16.25;7.90;;;;;;;-6.19;63.93;93923.63;5112080;28;20035;-76
2021/01/18 01:09:53;;;;;;;14.35;6.53;;;;;;;-6.17;64.22;93925.00;5093633;28;20019;-75
2021/01/18 01:12:22;;;;;;;14.70;7.95;;;;;;;-6.11;64.44;93928.56;5112203;28;20091;-76
2021/01/18 01:14:48;;;;;;;19.90;7.75;;;;;;;-6.08;64.28;93928.94;5093806;28;20015;-76
2021/01/18 01:17:14;;;;;;;18.67;8.32;;;;;;;-6.08;64.15;93922.97;5130448;27;20054;-77
2021/01/18 01:19:39;;;;;;;19.92;8.50;;;;;;;-6.05;64.02;93925.13;5114111;27;20104;-77
2021/01/18 01:22:05;;;;;;;17.88;7.82;;;;;;;-6.07;64.04;93935.72;5131010;27;20031;-76
2021/01/18 01:24:30;;;;;;;17.15;7.32;;;;;;;-6.08;64.02;93938.53;5132267;27;20443;-76
2021/01/18 01:26:55;;;;;;;18.15;8.90;;;;;;;-6.05;64.45;93938.09;5113886;27;20114;-76
2021/01/18 01:29:21;;;;;;;23.27;8.52;;;;;;;-6.03;64.17;93936.09;5132107;27;20033;-76
2021/01/18 01:31:47;;;;;;;16.98;8.10;;;;;;;-6.10;63.89;93936.13;5132354;27;20019;-76
2021/01/18 01:34:12;;;;;;;15.82;7.70;;;;;;;-6.26;64.07;93929.63;5131945;27;20478;-76
2021/01/18 01:36:44;;;;;;;17.55;8.68;;;;;;;-6.36;64.48;93946.66;5113724;27;20016;-76
2021/01/18 01:39:09;;;;;;;18.60;8.82;;;;;;;-6.39;64.39;93940.09;5113523;27;20101;-77
2021/01/18 01:41:35;;;;;;;19.35;8.77;;;;;;;-6.48;64.88;93934.31;5132109;27;20122;-77
2021/01/18 01:44:00;;;;;;;20.27;8.25;;;;;;;-6.47;65.05;93929.94;5132106;27;20023;-76
2021/01/18 01:46:26;;;;;;;22.15;9.27;;;;;;;-6.51;65.10;93934.75;5111969;27;20096;-76
2021/01/18 01:48:52;;;;;;;26.30;8.98;;;;;;;-6.57;65.36;93924.38;5126248;27;20037;-77
2021/01/18 01:51:19;;;;;;;17.00;7.72;;;;;;;-6.63;64.78;93940.75;5130290;27;20083;-77
2021/01/18 01:53:44;;;;;;;16.88;8.30;;;;;;;-6.62;64.64;93935.38;5113472;27;20132;-76
2021/01/18 01:56:10;;;;;;;19.23;7.97;;;;;;;-6.65;64.48;93935.78;5131953;27;20028;-77
2021/01/18 01:58:36;;;;;;;19.02;7.47;;;;;;;-6.81;64.08;93933.66;5131709;27;20034;-76
2021/01/18 02:01:04;;;;;;;16.83;7.60;;;;;;;-6.87;64.71;93935.25;5097729;28;20466;-77
2021/01/18 02:03:39;;;;;;;15.35;7.03;;;;;;;-6.92;64.97;93932.47;5092654;28;20440;-77
2021/01/18 02:06:05;;;;;;;14.35;6.97;;;;;;;-6.90;64.54;93944.25;5111079;28;20042;-76
2021/01/18 02:08:30;;;;;;;12.95;6.70;;;;;;;-6.88;65.45;93937.06;5108386;28;20028;-77
2021/01/18 02:10:56;;;;;;;16.50;7.28;;;;;;;-6.91;65.57;93942.63;5110943;28;20039;-76
2021/01/18 02:13:45;;;;;;;17.50;7.55;;;;;;;-6.93;66.26;93947.22;5092563;28;20542;-76
2021/01/18 02:16:51;;;;;;;17.00;8.15;;;;;;;-6.90;65.92;93946.00;5109514;28;20031;-76
2021/01/18 02:19:41;;;;;;;15.55;7.65;;;;;;;-6.95;66.89;93948.44;5095617;28;20027;-76
2021/01/18 02:22:45;;;;;;;20.00;8.68;;;;;;;-6.96;66.95;93955.41;5110726;28;20440;-76
2021/01/18 02:25:19;;;;;;;18.88;7.85;;;;;;;-6.99;66.79;93958.41;5107591;27;20076;-76
2021/01/18 02:28:18;;;;;;;15.48;7.65;;;;;;;-7.18;67.09;93962.63;5112744;27;20046;-76
2021/01/18 02:31:11;;;;;;;17.17;7.68;;;;;;;-7.16;66.96;93963.22;5112663;27;20026;-76
2021/01/18 02:34:24;;;;;;;15.88;7.53;;;;;;;-7.13;66.98;93951.63;5130860;27;20079;-76
2021/01/18 02:37:14;;;;;;;13.73;7.13;;;;;;;-7.13;66.90;93957.63;5112398;27;20027;-76
2021/01/18 02:40:02;;;;;;;16.90;8.60;;;;;;;-7.16;66.96;93958.03;5130666;27;20110;-76
2021/01/18 02:42:31;;;;;;;16.00;6.97;;;;;;;-7.18;66.36;93954.84;5112464;27;20049;-76
2021/01/18 02:44:58;;;;;;;16.70;7.95;;;;;;;-7.19;66.98;93942.09;5130668;27;20047;-76
2021/01/18 02:47:28;;;;;;;15.27;7.35;;;;;;;-7.10;67.10;93941.69;5112218;27;20115;-76
2021/01/18 02:49:56;;;;;;;16.85;7.28;;;;;;;-7.00;66.95;93943.84;5110370;28;20085;-76
2021/01/18 02:52:21;;;;;;;14.82;7.47;;;;;;;-6.97;66.36;93940.06;5110384;28;20039;-76
2021/01/18 02:54:47;;;;;;;20.70;8.57;;;;;;;-7.01;66.74;93950.03;5110564;28;20478;-76
2021/01/18 02:57:14;;;;;;;20.15;8.30;;;;;;;-7.02;66.98;93953.63;5130892;27;20045;-76
2021/01/18 02:59:42;;;;;;;17.60;8.40;;;;;;;-7.13;66.85;93957.63;5112014;27;20046;-76
2021/01/18 03:02:41;;;;;;;19.02;8.02;;;;;;;-7.04;67.13;93960.81;5109534;28;20023;-76
2021/01/18 03:05:24;;;;;;;15.15;7.72;;;;;;;-6.96;66.79;93957.19;5118734;27;20058;-75
2021/01/18 03:08:10;;;;;;;19.33;8.82;;;;;;;-6.95;67.13;93958.78;5109866;28;20493;-75
2021/01/18 03:10:42;;;;;;;18.48;8.43;;;;;;;-6.90;66.97;93951.19;5109901;28;20139;-75
2021/01/18 03:13:18;;;;;;;25.00;9.13;;;;;;;-6.94;66.96;93961.19;5091785;28;20038;-76
2021/01/18 03:15:46;;;;;;;17.15;7.63;;;;;;;-6.86;66.91;93957.56;5091575;28;20021;-75
2021/01/18 03:18:17;;;;;;;16.35;8.02;;;;;;;-6.78;67.14;93957.34;5110007;28;20066;-77
2021/01/18 03:20:44;;;;;;;20.23;9.32;;;;;;;-6.77;66.95;93956.34;5110178;28;20451;-76
2021/01/18 03:23:10;;;;;;;21.52;9.63;;;;;;;-6.67;66.14;93976.69;5095174;28;20023;-76
2021/01/18 03:25:55;;;;;;;21.58;10.38;;;;;;;-6.84;66.37;93960.75;5130635;27;20063;-77
2021/01/18 03:28:23;;;;;;;17.50;8.45;;;;;;;-6.98;66.73;93964.38;5134817;27;20097;-76
2021/01/18 03:30:49;;;;;;;18.05;8.77;;;;;;;-7.04;67.40;93966.00;5134730;27;20065;-76
2021/01/18 03:33:15;;;;;;;22.20;10.25;;;;;;;-6.95;66.71;93971.75;5116043;27;20027;-75
2021/01/18 03:35:41;;;;;;;18.98;8.48;;;;;;;-6.88;66.50;93964.75;5134540;27;20034;-75
2021/01/18 03:38:08;;;;;;;16.40;8.73;;;;;;;-6.82;66.58;93968.31;5115799;27;20038;-76
2021/01/18 03:40:34;;;;;;;19.25;9.32;;;;;;;-6.79;66.50;93963.53;5110389;28;20035;-76
2021/01/18 03:43:02;;;;;;;22.00;9.68;;;;;;;-6.67;66.35;93967.09;5127485;27;20077;-77
2021/01/18 03:45:29;;;;;;;24.52;9.15;;;;;;;-6.60;66.38;93961.09;5124038;27;20494;-76
2021/01/18 03:47:54;;;;;;;20.88;8.77;;;;;;;-6.64;66.58;93962.50;5113740;28;20031;-76
2021/01/18 03:50:21;;;;;;;20.92;9.23;;;;;;;-6.60;66.12;93961.09;5095317;28;20402;-76
2021/01/18 03:52:50;;;;;;;20.13;10.13;;;;;;;-6.58;65.73;93966.88;5114118;28;20023;-76
2021/01/18 03:55:16;;;;;;;23.00;11.27;;;;;;;-6.75;65.91;93969.91;5112176;28;20028;-76
2021/01/18 03:57:45;;;;;;;25.33;10.88;;;;;;;-6.82;66.19;93963.94;5095202;28;20065;-76
2021/01/18 04:00:11;;;;;;;20.27;9.93;;;;;;;-6.97;66.79;93976.34;5094968;28;20031;-76
2021/01/18 04:02:37;;;;;;;22.15;9.98;;;;;;;-6.93;67.31;93972.34;5112254;28;20024;-76
2021/01/18 04:05:04;;;;;;;21.58;10.15;;;;;;;-6.85;67.58;93966.94;5095046;28;20027;-77
2021/01/18 04:07:29;;;;;;;24.20;11.43;;;;;;;-6.75;67.37;93972.50;5126956;27;20019;-77
2021/01/18 04:09:54;;;;;;;21.95;10.13;;;;;;;-6.68;67.10;93981.03;5132558;27;20019;-77
2021/01/18 04:12:20;;;;;;;22.30;10.05;;;;;;;-6.61;66.58;93981.06;5133113;27;20023;-76
2021/01/18 04:14:45;;;;;;;19.48;10.68;;;;;;;-6.57;66.01;93984.00;5095223;28;20027;-76
2021/01/18 04:17:11;;;;;;;19.75;9.23;;;;;;;-6.53;66.00;93987.81;5094904;28;20030;-76
2021/01/18 04:19:37;;;;;;;25.42;9.93;;;;;;;-6.57;65.13;93986.59;5125645;27;20143;-76
2021/01/18 04:22:06;;;;;;;21.02;9.20;;;;;;;-6.52;64.63;93994.59;5115544;27;20023;-76
2021/01/18 04:24:35;;;;;;;25.48;9.43;;;;;;;-6.52;64.02;93994.59;5133301;27;20031;-77
2021/01/18 04:27:01;;;;;;;17.85;8.63;;;;;;;-6.51;64.04;93996.19;5112924;28;20394;-77
2021/01/18 04:29:27;;;;;;;20.10;9.20;;;;;;;-6.62;62.32;93989.03;5112786;27;20114;-77
2021/01/18 04:31:53;;;;;;;16.95;8.00;;;;;;;-6.59;62.88;93996.38;5094551;28;20062;-76
2021/01/18 04:34:20;;;;;;;18.55;8.45;;;;;;;-6.68;63.27;93988.81;5112093;27;20482;-77
2021/01/18 04:36:45;;;;;;;19.95;8.93;;;;;;;-6.59;62.98;93997.19;5128870;27;20023;-76
2021/01/18 04:39:11;;;;;;;17.23;8.48;;;;;;;-6.59;62.86;93998.97;5119325;27;20035;-77
2021/01/18 04:41:40;;;;;;;19.75;8.68;;;;;;;-6.56;62.40;93999.38;5131985;27;20084;-77
2021/01/18 04:44:14;;;;;;;18.00;8.57;;;;;;;-6.57;61.98;93991.78;5112977;28;20471;-77
2021/01/18 04:46:41;;;;;;;20.40;10.00;;;;;;;-6.59;61.63;94010.16;5122479;27;20031;-76
2021/01/18 04:49:11;;;;;;;18.40;8.57;;;;;;;-6.60;61.12;94015.53;5133497;27;20035;-76
2021/01/18 04:51:58;;;;;;;17.05;8.32;;;;;;;-6.59;60.48;94007.56;5132971;27;20027;-77
2021/01/18 04:54:26;;;;;;;19.67;8.80;;;;;;;-6.69;60.99;94010.56;5126282;27;20126;-77
2021/01/18 04:57:10;;;;;;;18.00;9.48;;;;;;;-6.68;60.68;94013.97;5112436;28;20425;-77
2021/01/18 05:00:01;;;;;;;21.75;8.60;;;;;;;-6.78;60.58;94011.78;5122201;27;20071;-77
2021/01/18 05:02:39;;;;;;;17.57;7.70;;;;;;;-6.79;60.39;94007.59;5133008;27;20026;-77
2021/01/18 05:05:20;;;;;;;20.33;7.82;;;;;;;-6.80;60.07;94020.75;5111354;28;20038;-77
2021/01/18 05:08:05;;;;;;;15.35;7.70;;;;;;;-6.76;59.72;94017.56;5096228;27;20043;-77
2021/01/18 05:10:31;;;;;;;16.52;7.72;;;;;;;-6.90;59.51;94005.63;5114136;27;20047;-77
2021/01/18 05:13:01;;;;;;;16.35;8.20;;;;;;;-6.96;59.92;94016.78;5114060;27;20398;-77
2021/01/18 05:15:27;;;;;;;14.77;6.70;;;;;;;-7.06;59.57;94015.41;5114315;27;20056;-77
2021/01/18 05:17:58;;;;;;;18.95;8.13;;;;;;;-7.09;59.56;94020.97;5111189;27;20099;-77
2021/01/18 05:20:23;;;;;;;15.75;7.28;;;;;;;-7.12;60.14;94016.22;5112195;28;20103;-77
2021/01/18 05:22:52;;;;;;;17.35;7.22;;;;;;;-7.13;59.49;94019.78;5093277;28;20123;-77
2021/01/18 05:25:22;;;;;;;15.10;7.70;;;;;;;-7.12;59.81;94016.22;5111653;28;20028;-77
2021/01/18 05:28:05;;;;;;;17.55;8.00;;;;;;;-7.09;59.29;94026.16;5093391;28;20027;-77
2021/01/18 05:30:40;;;;;;;18.83;8.40;;;;;;;-7.19;60.20;94028.34;5093529;28;20027;-78
2021/01/18 05:33:09;;;;;;;16.80;7.57;;;;;;;-7.20;60.21;94029.38;5111987;28;20140;-77
2021/01/18 05:35:39;;;;;;;16.60;7.47;;;;;;;-7.17;60.53;94047.09;5111601;28;20501;-76
2021/01/18 05:38:11;;;;;;;18.88;7.15;;;;;;;-7.22;60.62;94041.72;5093126;28;20032;-77
2021/01/18 05:40:37;;;;;;;;;;;;;;;-7.32;61.15;94034.34;5118432;27;20379;-77
2021/01/18 05:43:03;;;;;;;21.95;8.65;;;;;;;-7.30;61.57;94040.13;5113521;27;19907;-76
2021/01/18 05:45:31;;;;;;;19.90;8.40;;;;;;;-7.29;61.90;94049.47;5131765;27;20046;-77
2021/01/18 05:47:58;;;;;;;15.65;7.68;;;;;;;-7.28;62.00;94042.50;5129126;27;20030;-76
2021/01/18 05:50:25;;;;;;;19.08;8.20;;;;;;;-7.31;61.92;94048.06;5112495;27;20027;-76
2021/01/18 05:52:51;;;;;;;18.10;8.70;;;;;;;-7.29;62.47;94049.47;5131887;27;20046;-75
2021/01/18 05:55:30;;;;;;;17.98;8.18;;;;;;;-7.27;62.45;94049.28;5131749;27;20068;-75
2021/01/18 05:58:03;;;;;;;22.23;9.30;;;;;;;-7.28;62.72;94053.66;5113533;27;20183;-76
2021/01/18 06:00:37;;;;;;;21.85;8.60;;;;;;;-7.31;62.39;94050.66;5113657;27;20027;-76
2021/01/18 06:03:07;;;;;;;19.08;8.55;;;;;;;-7.30;62.43;94055.66;5112767;27;20569;-76
2021/01/18 06:05:39;;;;;;;20.45;9.02;;;;;;;-7.26;63.31;94056.06;5113218;27;20023;-76
2021/01/18 06:08:11;;;;;;;27.55;8.93;;;;;;;-7.31;63.23;94053.25;5120170;27;20142;-76
2021/01/18 06:10:37;;;;;;;18.45;7.75;;;;;;;-7.28;62.59;94058.84;5113792;27;20036;-76
2021/01/18 06:13:03;;;;;;;22.67;8.18;;;;;;;-7.30;62.94;94057.47;5097782;28;20023;-76
2021/01/18 06:15:28;;;;;;;21.23;10.00;;;;;;;-7.27;62.73;94064.81;5088992;28;20046;-76
2021/01/18 06:17:57;;;;;;;15.95;8.20;;;;;;;-7.31;62.44;94058.44;5106152;28;20390;-75
2021/01/18 06:20:22;;;;;;;24.05;9.70;;;;;;;-7.27;62.18;94057.03;5096051;28;20028;-76
2021/01/18 06:22:54;;;;;;;23.17;9.45;;;;;;;-7.30;62.34;94058.25;5090671;28;20076;-77
2021/01/18 06:25:22;;;;;;;17.83;8.55;;;;;;;-7.24;62.00;94048.91;5090256;28;20032;-77
2021/01/18 06:27:48;;;;;;;18.30;8.05;;;;;;;-7.25;61.75;94049.88;5100769;28;20092;-77
2021/01/18 06:30:25;;;;;;;23.45;9.82;;;;;;;-7.26;60.31;94051.66;5106041;27;20032;-77
2021/01/18 06:32:56;;;;;;;23.83;8.73;;;;;;;-7.11;59.86;94053.28;5090082;28;20023;-77
2021/01/18 06:35:31;;;;;;;63.85;24.67;;;;;;;-7.12;59.47;94046.50;5088621;28;20031;-77
2021/01/18 06:38:07;;;;;;;24.70;8.90;;;;;;;-7.14;58.84;94059.66;5090282;28;20035;-77
2021/01/18 06:40:34;;;;;;;29.48;11.40;;;;;;;-7.12;59.43;94064.66;5095576;28;20032;-77
2021/01/18 06:43:01;;;;;;;37.95;17.10;;;;;;;-7.13;59.57;94068.22;5092798;28;20023;-76
2021/01/18 06:45:39;;;;;;;36.40;11.15;;;;;;;-7.11;59.91;94063.63;5092586;28;20035;-76
2021/01/18 06:48:08;;;;;;;24.58;10.27;;;;;;;-7.04;59.50;94074.00;5109081;28;20521;-76
2021/01/18 06:50:36;;;;;;;21.98;8.70;;;;;;;-6.95;58.81;94072.81;5108835;28;20088;-77
2021/01/18 06:53:25;;;;;;;26.48;10.60;;;;;;;-6.95;58.76;94073.59;5101658;28;20040;-76
2021/01/18 06:56:18;;;;;;;23.55;10.50;;;;;;;-6.94;57.36;94083.00;5096725;28;20471;-76
2021/01/18 06:59:21;;;;;;;49.80;21.27;;;;;;;-6.99;56.75;94092.34;5097520;28;20078;-77
2021/01/18 07:01:47;;;;;;;20.40;9.77;;;;;;;-7.00;56.20;94082.97;5089368;28;20110;-77
2021/01/18 07:04:15;;;;;;;33.30;11.13;;;;;;;-6.99;55.82;94098.31;5088229;28;20101;-76
2021/01/18 07:06:45;;;;;;;13.80;6.18;;;;;;;-7.12;54.77;94093.16;5089738;28;20121;-77
2021/01/18 07:09:16;;;;;;;14.52;7.18;;;;;;;-7.07;55.85;94090.75;5089552;28;20158;-75
2021/01/18 07:11:45;;;;;;;21.42;7.60;;;;;;;-6.98;57.26;94094.75;5105181;28;20058;-76
2021/01/18 07:14:13;;;;;;;19.88;7.57;;;;;;;-6.84;55.98;94095.53;5091647;28;20178;-76
2021/01/18 07:17:02;;;;;;;15.40;6.35;;;;;;;-6.78;54.88;94089.53;5091408;28;20016;-75
2021/01/18 07:19:36;;;;;;;18.67;7.88;;;;;;;-6.77;54.16;94085.19;5099039;28;20030;-77
2021/01/18 07:22:26;;;;;;;18.17;8.93;;;;;;;-6.88;53.56;94097.75;5126606;27;20015;-77
2021/01/18 07:24:58;;;;;;;39.72;16.85;;;;;;;-6.84;54.96;94100.72;5110777;28;20077;-75
2021/01/18 07:27:25;;;;;;;28.98;11.13;;;;;;;-6.81;55.12;94107.31;5097863;28;20083;-76
2021/01/18 07:29:51;;;;;;;15.35;7.00;;;;;;;-6.85;54.87;94106.91;5101811;28;20039;-75
2021/01/18 07:32:20;;;;;;;17.25;6.60;;;;;;;-6.81;54.98;94110.69;5093753;28;20031;-75
2021/01/18 07:34:45;;;;;;;21.30;8.68;;;;;;;-6.76;55.50;94112.69;5098466;28;20029;-76
2021/01/18 07:37:14;;;;;;;21.48;8.40;;;;;;;-6.68;55.67;94105.47;5091149;28;20114;-76
2021/01/18 07:39:43;;;;;;;17.08;6.70;;;;;;;-6.64;55.43;94118.84;5099791;28;20559;-76
2021/01/18 07:42:27;;;;;;;15.80;8.60;;;;;;;-6.69;55.51;94118.66;5099569;28;20035;-76
2021/01/18 07:45:14;;;;;;;14.45;6.65;;;;;;;-6.75;55.35;94133.22;5095216;28;20024;-78
2021/01/18 07:48:00;;;;;;;20.70;8.15;;;;;;;-6.82;56.09;94126.44;5124978;27;20470;-74
2021/01/18 07:50:27;;;;;;;16.60;7.45;;;;;;;-6.73;55.88;94138.22;5111702;28;20405;-77
2021/01/18 07:52:59;;;;;;;12.10;5.88;;;;;;;-6.70;56.04;94128.22;5124533;27;20555;-73
2021/01/18 07:55:28;;;;;;;16.73;7.25;;;;;;;-6.78;56.35;94125.81;5091563;28;20023;-73
2021/01/18 07:57:54;;;;;;;15.32;8.00;;;;;;;-6.76;57.75;94134.19;5105033;28;20121;-73
2021/01/18 08:02:48;;;;;;;17.50;6.60;;;;;;;-6.57;56.53;94155.97;5115282;28;20019;-73
2021/01/18 08:05:20;;;;;;;19.48;6.00;;;;;;;-6.52;56.89;94139.81;5117844;28;20395;-73
2021/01/18 08:08:01;;;;;;;;;;;;;;;-6.41;57.19;94140.97;5127613;28;20133;-73
2021/01/18 08:10:48;;;;;;;14.50;7.07;;;;;;;-6.50;57.16;94153.38;5129693;27;19915;-74
2021/01/18 08:13:40;;;;;;;16.58;8.20;;;;;;;-6.52;56.83;94147.56;5126619;27;20027;-74
2021/01/18 08:16:12;;;;;;;23.20;7.50;;;;;;;-6.53;57.72;94153.78;5129420;27;20015;-73
2021/01/18 08:19:05;;;;;;;52.53;20.17;;;;;;;-6.51;58.33;94152.56;5114605;27;20102;-73
2021/01/18 08:21:33;;;;;;;24.33;9.68;;;;;;;-6.51;58.60;94157.75;5111665;27;20042;-71
2021/01/18 08:23:59;;;;;;;26.27;11.85;;;;;;;-6.55;59.10;94150.59;5094657;28;20051;-71
2021/01/18 08:26:25;;;;;;;22.90;8.88;;;;;;;-6.45;58.86;94150.97;5132186;27;20019;-72
2021/01/18 08:28:50;;;;;;;33.30;13.48;;;;;;;-6.29;58.08;94140.19;5110375;27;22280;-71
2021/01/18 08:31:19;;;;;;;20.42;10.18;;;;;;;-6.29;57.44;94145.38;5106258;27;20062;-71
2021/01/18 08:33:44;;;;;;;23.67;11.20;;;;;;;-6.33;57.57;94151.97;5122955;27;20118;-71
2021/01/18 08:36:10;;;;;;;29.52;12.73;;;;;;;-6.38;57.12;94149.16;5100107;28;20107;-71
2021/01/18 08:38:38;;;;;;;17.23;7.32;;;;;;;-6.36;57.08;94146.38;5097198;28;20035;-71
2021/01/18 08:41:10;;;;;;;17.77;8.32;;;;;;;-6.43;56.94;94143.78;5112636;28;20024;-71
2021/01/18 08:43:53;;;;;;;14.80;6.75;;;;;;;-6.51;55.66;94144.78;5094116;28;20035;-71
2021/01/18 08:46:37;;;;;;;34.85;7.63;;;;;;;-6.46;53.80;94162.34;5106731;27;20035;-71
2021/01/18 08:49:28;;;;;;;19.77;6.00;;;;;;;-6.49;54.03;94144.59;5098560;28;20034;-68
2021/01/18 08:51:58;;;;;;;54.63;6.88;;;;;;;-6.55;53.14;94155.78;5131110;27;20505;-71
2021/01/18 08:54:37;;;;;;;14.60;5.57;;;;;;;-6.56;53.71;94147.16;5131273;27;20474;-71
2021/01/18 08:57:38;;;;;;;10.93;4.90;;;;;;;-6.59;53.24;94154.53;5112793;27;20114;-73
2021/01/18 09:00:09;;;;;;;16.33;4.95;;;;;;;-6.51;53.63;94146.59;5085260;27;20147;-71
2021/01/18 09:02:36;;;;;;;13.38;5.57;;;;;;;-6.53;52.58;94149.38;5114156;27;20034;-72
2021/01/18 09:05:12;;;;;;;11.73;5.40;;;;;;;-6.51;52.54;94144.00;5095292;28;20088;-73
2021/01/18 09:07:43;;;;;;;10.95;5.55;;;;;;;-6.42;54.25;94149.78;5113858;27;20148;-71
2021/01/18 09:10:16;;;;;;;13.23;4.75;;;;;;;-6.28;52.46;94159.94;5118561;27;20137;-73
2021/01/18 09:12:43;;;;;;;24.73;7.18;;;;;;;-6.17;52.44;94157.72;5096054;28;20133;-71
2021/01/18 09:15:10;;;;;;;11.50;5.45;;;;;;;-6.20;52.51;94166.72;5112227;27;20034;-70
2021/01/18 09:17:35;;;;;;;12.25;5.13;;;;;;;-6.16;52.68;94160.13;5100746;27;20034;-71
2021/01/18 09:20:06;;;;;;;10.00;5.63;;;;;;;-6.08;52.33;94154.72;5108387;27;20027;-71
2021/01/18 09:22:40;;;;;;;13.10;5.83;;;;;;;-6.08;52.34;94138.34;5129213;27;20529;-71
2021/01/18 09:25:07;;;;;;;27.30;6.57;;;;;;;-5.95;52.32;94151.28;5114688;27;20281;-71
2021/01/18 09:27:34;;;;;;;17.67;5.30;;;;;;;-5.92;52.12;94140.47;5123522;27;20027;-70
2021/01/18 09:30:06;;;;;;;15.48;5.32;;;;;;;-5.89;51.55;94140.06;5117338;27;20087;-71
2021/01/18 09:32:32;;;;;;;12.98;6.10;;;;;;;-5.92;52.22;94139.66;5099037;28;20026;-76
2021/01/18 09:35:09;;;;;;;11.55;3.95;;;;;;;-5.88;51.12;94146.84;5121432;27;20102;-76
2021/01/18 09:37:42;;;;;;;9.98;4.45;;;;;;;-5.96;51.24;94128.94;5126858;27;20106;-76
2021/01/18 09:40:08;;;;;;;18.33;4.75;;;;;;;-5.92;51.52;94130.09;5128167;27;20250;-74
2021/01/18 09:42:35;;;;;;;9.00;5.13;;;;;;;-5.95;50.88;94122.72;5124451;27;20061;-76
2021/01/18 09:45:02;;;;;;;17.95;4.90;;;;;;;-5.89;51.95;94124.47;5109907;28;20026;-75
2021/01/18 09:47:31;;;;;;;12.88;3.92;;;;;;;-5.88;51.20;94120.91;5125915;27;20106;-72
2021/01/18 09:50:24;;;;;;;15.32;7.32;;;;;;;-5.81;51.90;94112.28;5109889;27;20054;-73
2021/01/18 09:52:52;;;;;;;15.10;5.22;;;;;;;-5.76;51.89;94117.66;5091809;28;20041;-74
2021/01/18 09:55:26;;;;;;;15.02;5.00;;;;;;;-5.81;51.53;94112.28;5126682;27;20027;-73
2021/01/18 09:58:04;;;;;;;18.40;5.75;;;;;;;-5.85;51.06;94106.69;5104504;27;20019;-71
2021/01/18 10:00:35;;;;;;;13.20;5.43;;;;;;;-5.81;52.49;94112.28;5121466;27;20077;-74
2021/01/18 10:03:02;;;;;;;17.80;5.72;;;;;;;-5.85;52.36;94099.69;5098234;28;20024;-74
2021/01/18 10:05:43;;;;;;;13.93;5.80;;;;;;;-5.75;52.69;94095.88;5092232;28;20031;-75
2021/01/18 10:08:16;;;;;;;11.30;5.00;;;;;;;-5.73;52.31;94091.28;5117991;27;20054;-74
2021/01/18 10:10:48;;;;;;;14.60;6.18;;;;;;;-5.67;52.41;94095.66;5095141;28;20043;-73
2021/01/18 10:13:25;;;;;;;11.68;5.85;;;;;;;-5.65;52.81;94094.44;5092743;28;20107;-72
2021/01/18 10:15:52;;;;;;;17.13;7.03;;;;;;;-5.60;52.53;94086.00;5108649;28;20532;-73
2021/01/18 10:18:28;;;;;;;12.05;5.38;;;;;;;-5.61;51.04;94091.44;5096915;28;20105;-72
2021/01/18 10:20:54;;;;;;;10.20;4.72;;;;;;;-5.58;51.91;94081.41;5088607;28;20024;-72
2021/01/18 10:23:20;;;;;;;14.43;5.20;;;;;;;-5.51;52.03;94099.56;5098063;28;20628;-72
2021/01/18 10:25:45;;;;;;;13.40;5.28;;;;;;;-5.49;51.33;94093.16;5092863;28;20028;-73
2021/01/18 10:28:17;;;;;;;15.95;5.03;;;;;;;-5.52;50.78;94083.16;5097764;28;20371;-72
2021/01/18 10:30:43;;;;;;;7.93;3.95;;;;;;;-5.56;51.08;94101.97;5108931;28;20072;-72
2021/01/18 10:33:15;;;;;;;8.38;4.05;;;;;;;-5.57;50.88;94096.00;5095662;28;20106;-72
2021/01/18 10:35:40;;;;;;;12.38;4.45;;;;;;;-5.65;50.92;94094.44;5089460;28;20030;-73
2021/01/18 10:38:16;;;;;;;9.30;4.13;;;;;;;-5.56;51.85;94087.19;5089538;28;20426;-73
2021/01/18 10:40:45;;;;;;;12.57;5.18;;;;;;;-5.53;52.81;94086.78;5095450;28;20023;-73
2021/01/18 10:43:12;;;;;;;11.10;5.32;;;;;;;-5.50;53.41;94073.38;5110006;28;20398;-74
2021/01/18 10:45:42;;;;;;;12.80;4.88;;;;;;;-5.45;51.73;94091.75;5086901;28;20101;-74
2021/01/18 10:48:09;;;;;;;9.55;3.83;;;;;;;-5.59;52.86;94085.03;5091210;28;20035;-71
2021/01/18 10:50:35;;;;;;;12.20;4.85;;;;;;;-5.57;52.76;94093.41;5102950;28;20019;-71
2021/01/18 10:53:08;;;;;;;8.90;3.88;;;;;;;-5.64;52.38;94079.63;5109705;28;20043;-71
2021/01/18 10:55:35;;;;;;;31.80;7.15;;;;;;;-5.66;52.76;94082.47;5104058;28;20446;-71
2021/01/18 10:58:03;;;;;;;10.50;5.45;;;;;;;-5.66;53.05;94094.63;5097461;28;20035;-71
2021/01/18 11:00:29;;;;;;;10.00;4.32;;;;;;;-5.63;52.31;94081.25;5092283;28;20082;-71
2021/01/18 11:03:00;;;;;;;12.93;5.57;;;;;;;-5.59;51.82;94090.22;5094744;28;20440;-71
2021/01/18 11:05:39;;;;;;;13.02;5.88;;;;;;;-5.62;52.40;94077.63;5102944;28;20467;-71
2021/01/18 11:08:07;;;;;;;16.27;6.55;;;;;;;-5.58;52.62;94068.41;5089543;28;20088;-71
2021/01/18 11:10:39;;;;;;;13.38;5.32;;;;;;;-5.67;52.56;94075.66;5095160;28;20419;-71
2021/01/18 11:13:10;;;;;;;12.10;5.07;;;;;;;-5.63;52.57;94088.25;5109712;28;20130;-71
2021/01/18 11:15:42;;;;;;;17.70;6.40;;;;;;;-5.65;52.42;94085.84;5108365;27;20589;-72
2021/01/18 11:18:11;;;;;;;15.90;5.57;;;;;;;-5.63;52.93;94073.47;5111299;28;20035;-72
2021/01/18 11:20:38;;;;;;;13.70;6.38;;;;;;;-5.47;51.53;94078.16;5111264;28;20084;-72
2021/01/18 11:23:09;;;;;;;13.80;5.70;;;;;;;-5.44;51.75;94085.53;5130248;28;20027;-72
2021/01/18 11:25:37;;;;;;;13.52;5.30;;;;;;;-5.45;51.43;94068.34;5129839;27;20504;-72
2021/01/18 11:28:11;;;;;;;14.65;5.45;;;;;;;-5.31;50.63;94076.06;5111452;28;20029;-72
2021/01/18 11:30:41;;;;;;;12.90;4.82;;;;;;;-5.35;50.07;94083.50;5130130;27;20027;-72
2021/01/18 11:33:09;;;;;;;15.73;4.82;;;;;;;-5.33;50.25;94078.06;5093829;28;20505;-72
2021/01/18 11:35:35;;;;;;;13.02;5.78;;;;;;;-5.28;50.54;94063.44;5129163;27;20015;-72
2021/01/18 11:38:00;;;;;;;13.13;4.93;;;;;;;-5.17;50.23;94085.41;5130137;27;20469;-72
2021/01/18 11:40:26;;;;;;;13.70;5.85;;;;;;;-5.18;50.26;94076.00;5130311;27;20088;-73
2021/01/18 11:42:55;;;;;;;17.13;5.88;;;;;;;-5.10;51.76;94075.72;5111363;28;20131;-73
2021/01/18 11:45:23;;;;;;;11.25;5.05;;;;;;;-5.23;48.52;94081.03;5128475;28;20433;-73